Time;durP1;ratioP1;P1;durP2;ratioP2;P2;SDS_P1;SDS_P2;PMS_P1;PMS_P2;Temp;Humidity;BMP_temperature;BMP_pressure;BME280_temperature;BME280_humidity;BME280_pressure;Samples;Min_cycle;Max_cycle;Signal;HPM_P1;HPM_P2
2024/03/16 00:00:25;;;;;;;41.50;33.70;;;;;;;;;;4984148;28;20228;-87
2024/03/16 00:02:51;;;;;;;42.50;33.83;;;;;;;;;;5015115;28;20224;-86
2024/03/16 00:05:16;;;;;;;39.07;34.80;;;;;;;;;;5004722;28;20696;-87
2024/03/16 00:07:42;;;;;;;41.20;35.07;;;;;;;;;;4997836;28;20254;-87
2024/03/16 00:10:09;;;;;;;39.80;34.50;;;;;;;;;;4986286;28;20221;-87
2024/03/16 00:12:35;;;;;;;40.20;35.83;;;;;;;;;;5003851;28;20263;-87
2024/03/16 00:15:00;;;;;;;44.33;34.90;;;;;;;;;;5013563;28;20227;-87
2024/03/16 00:17:26;;;;;;;41.03;35.20;;;;;;;;;;5033448;28;20215;-87
2024/03/16 00:19:51;;;;;;;39.67;35.33;;;;;;;;;;5020996;28;20224;-87
2024/03/16 00:22:19;;;;;;;39.10;34.80;;;;;;;;;;5014944;28;20705;-88
2024/03/16 00:24:50;;;;;;;39.13;34.53;;;;;;;;;;5012813;28;20228;-86
2024/03/16 00:27:15;;;;;;;38.90;34.60;;;;;;;;;;5015974;28;20281;-87
2024/03/16 00:29:44;;;;;;;40.37;35.40;;;;;;;;;;4999487;28;20352;-87
2024/03/16 00:32:10;;;;;;;37.67;33.67;;;;;;;;;;5020810;28;20728;-88
2024/03/16 00:34:38;;;;;;;38.40;34.33;;;;;;;;;;5029077;28;20216;-87
2024/03/16 00:37:04;;;;;;;39.33;35.17;;;;;;;;;;5001171;28;20306;-88
2024/03/16 00:39:32;;;;;;;36.17;32.37;;;;;;;;;;5005871;28;20227;-88
2024/03/16 00:42:01;;;;;;;36.70;32.77;;;;;;;;;;4983916;28;20217;-86
2024/03/16 00:44:27;;;;;;;36.90;32.57;;;;;;;;;;4982372;28;20228;-88
2024/03/16 00:46:52;;;;;;;39.53;34.70;;;;;;;;;;5016365;28;20298;-85
2024/03/16 00:49:20;;;;;;;37.03;33.10;;;;;;;;;;5002625;28;20220;-87
2024/03/16 00:51:46;;;;;;;37.07;33.00;;;;;;;;;;5001373;28;20227;-83
2024/03/16 00:54:14;;;;;;;35.60;31.77;;;;;;;;;;5020389;28;20243;-87
2024/03/16 00:56:40;;;;;;;36.47;32.63;;;;;;;;;;4997348;28;20705;-87
2024/03/16 00:59:08;;;;;;;36.23;32.37;;;;;;;;;;5008349;28;20237;-87
2024/03/16 01:01:36;;;;;;;36.77;32.97;;;;;;;;;;5009180;28;20223;-87
2024/03/16 01:04:02;;;;;;;36.50;32.70;;;;;;;;;;5026114;28;20337;-87
2024/03/16 01:06:28;;;;;;;37.17;32.33;;;;;;;;;;5008553;28;20220;-87
2024/03/16 01:08:53;;;;;;;36.27;32.37;;;;;;;;;;4998058;28;21365;-88
2024/03/16 01:11:19;;;;;;;36.07;32.43;;;;;;;;;;5006738;28;20216;-86
2024/03/16 01:13:48;;;;;;;35.50;31.70;;;;;;;;;;4994622;28;20240;-85
2024/03/16 01:16:13;;;;;;;35.40;31.60;;;;;;;;;;4989633;28;20224;-86
2024/03/16 01:18:39;;;;;;;34.47;31.07;;;;;;;;;;4997623;28;20291;-86
2024/03/16 01:21:07;;;;;;;36.27;32.37;;;;;;;;;;4998370;28;20219;-86
2024/03/16 01:23:36;;;;;;;35.63;31.90;;;;;;;;;;4993286;28;20237;-87
2024/03/16 01:26:03;;;;;;;35.50;31.63;;;;;;;;;;4999176;28;20224;-87
2024/03/16 01:28:30;;;;;;;34.97;31.27;;;;;;;;;;5020801;28;20220;-87
2024/03/16 01:30:55;;;;;;;35.73;31.97;;;;;;;;;;4999680;28;20212;-87
2024/03/16 01:33:21;;;;;;;36.27;32.60;;;;;;;;;;5000065;28;20243;-87
2024/03/16 01:35:49;;;;;;;36.73;32.87;;;;;;;;;;4998462;28;20717;-86
2024/03/16 01:38:15;;;;;;;35.13;31.73;;;;;;;;;;4994732;28;20278;-87
2024/03/16 01:40:41;;;;;;;35.87;32.00;;;;;;;;;;4999977;28;20724;-86
2024/03/16 01:43:13;;;;;;;34.50;31.07;;;;;;;;;;5003772;28;20228;-86
2024/03/16 01:45:42;;;;;;;34.87;31.17;;;;;;;;;;5013665;28;20225;-87
2024/03/16 01:48:14;;;;;;;35.00;31.27;;;;;;;;;;4985660;28;20224;-86
2024/03/16 01:50:40;;;;;;;33.17;29.70;;;;;;;;;;4996986;28;20303;-87
2024/03/16 01:53:07;;;;;;;33.93;30.37;;;;;;;;;;4983234;28;20235;-87
2024/03/16 01:55:33;;;;;;;34.57;31.27;;;;;;;;;;4991938;28;20215;-88
2024/03/16 01:57:58;;;;;;;33.93;30.30;;;;;;;;;;5016126;28;20220;-86
2024/03/16 02:00:26;;;;;;;33.17;29.67;;;;;;;;;;4997433;28;20640;-86
2024/03/16 02:02:54;;;;;;;32.53;29.27;;;;;;;;;;4998003;28;20289;-87
2024/03/16 02:05:19;;;;;;;33.03;29.53;;;;;;;;;;4997554;28;20232;-87
2024/03/16 02:07:45;;;;;;;32.67;29.37;;;;;;;;;;4979424;28;20228;-86
2024/03/16 02:10:12;;;;;;;31.63;27.13;;;;;;;;;;5007425;28;20224;-86
2024/03/16 02:12:41;;;;;;;31.27;28.17;;;;;;;;;;5011372;28;20219;-85
2024/03/16 02:15:09;;;;;;;31.97;27.13;;;;;;;;;;4999889;28;20235;-87
2024/03/16 02:17:37;;;;;;;30.30;26.37;;;;;;;;;;5008911;28;20225;-86
2024/03/16 02:20:15;;;;;;;28.97;26.07;;;;;;;;;;4992888;28;20625;-86
2024/03/16 02:22:44;;;;;;;27.60;24.77;;;;;;;;;;5002798;28;20224;-87
2024/03/16 02:25:12;;;;;;;29.63;26.43;;;;;;;;;;5010311;28;20255;-85
2024/03/16 02:27:38;;;;;;;29.13;25.10;;;;;;;;;;5005631;28;20247;-85
2024/03/16 02:30:09;;;;;;;30.23;24.67;;;;;;;;;;4990864;28;20248;-83
2024/03/16 02:32:37;;;;;;;29.93;24.30;;;;;;;;;;4995604;28;20259;-86
2024/03/16 02:35:08;;;;;;;27.17;23.90;;;;;;;;;;4986838;28;20219;-86
2024/03/16 02:37:33;;;;;;;26.53;23.83;;;;;;;;;;5009326;28;20286;-85
2024/03/16 02:39:59;;;;;;;27.33;22.60;;;;;;;;;;5009032;28;20224;-87
2024/03/16 02:42:27;;;;;;;24.80;22.13;;;;;;;;;;5026372;28;20254;-85
2024/03/16 02:44:53;;;;;;;25.67;22.83;;;;;;;;;;4992359;28;20228;-86
2024/03/16 02:47:20;;;;;;;26.97;22.33;;;;;;;;;;5022025;28;20753;-87
2024/03/16 02:49:50;;;;;;;30.10;23.00;;;;;;;;;;4994066;28;20312;-87
2024/03/16 02:52:15;;;;;;;25.80;21.80;;;;;;;;;;4992194;28;20295;-86
2024/03/16 02:54:43;;;;;;;24.93;21.93;;;;;;;;;;4993580;28;20216;-87
2024/03/16 02:57:09;;;;;;;28.47;22.13;;;;;;;;;;5021233;28;20230;-86
2024/03/16 02:59:36;;;;;;;24.43;21.67;;;;;;;;;;5003963;28;20228;-86
2024/03/16 03:02:05;;;;;;;25.97;22.23;;;;;;;;;;5003023;28;20275;-86
2024/03/16 03:04:30;;;;;;;24.50;21.90;;;;;;;;;;5019105;28;20232;-87
2024/03/16 03:07:01;;;;;;;26.33;22.20;;;;;;;;;;5030519;28;20216;-86
2024/03/16 03:09:26;;;;;;;24.60;21.43;;;;;;;;;;4996765;28;20295;-85
2024/03/16 03:11:55;;;;;;;25.57;21.47;;;;;;;;;;5005405;28;20230;-86
2024/03/16 03:14:21;;;;;;;26.30;21.40;;;;;;;;;;4973094;28;20228;-85
2024/03/16 03:16:49;;;;;;;24.50;21.90;;;;;;;;;;5002825;28;20228;-87
2024/03/16 03:19:16;;;;;;;23.33;20.97;;;;;;;;;;5022118;28;20224;-85
2024/03/16 03:21:44;;;;;;;23.87;20.40;;;;;;;;;;4987588;28;20215;-87
2024/03/16 03:24:14;;;;;;;23.77;21.23;;;;;;;;;;4990567;28;20229;-87
2024/03/16 03:26:39;;;;;;;25.40;21.27;;;;;;;;;;5018255;28;20220;-86
2024/03/16 03:29:05;;;;;;;25.53;21.03;;;;;;;;;;5007603;28;20220;-86
2024/03/16 03:31:30;;;;;;;25.70;20.30;;;;;;;;;;5007640;28;20219;-87
2024/03/16 03:33:58;;;;;;;24.67;20.17;;;;;;;;;;5018400;28;20232;-86
2024/03/16 03:36:29;;;;;;;25.43;20.37;;;;;;;;;;4999989;28;20216;-87
2024/03/16 03:38:54;;;;;;;24.33;20.67;;;;;;;;;;4989952;28;20259;-86
2024/03/16 03:41:20;;;;;;;23.80;19.77;;;;;;;;;;5002644;28;20215;-86
2024/03/16 03:43:57;;;;;;;22.23;19.83;;;;;;;;;;5030333;28;20240;-84
2024/03/16 03:46:49;;;;;;;25.57;19.70;;;;;;;;;;5024660;28;20222;-87
2024/03/16 03:49:35;;;;;;;24.53;20.23;;;;;;;;;;5011145;28;20216;-86
2024/03/16 03:52:02;;;;;;;26.63;19.97;;;;;;;;;;5008344;28;20246;-86
2024/03/16 03:54:31;;;;;;;24.80;19.47;;;;;;;;;;4998838;28;20235;-87
2024/03/16 03:56:56;;;;;;;25.83;20.00;;;;;;;;;;5039604;28;20245;-86
2024/03/16 04:03:11;;;;;;;24.67;18.63;;;;;;;;;;5033931;28;20231;-87
2024/03/16 04:05:37;;;;;;;25.47;19.23;;;;;;;;;;5013571;28;20220;-86
2024/03/16 04:08:05;;;;;;;26.17;18.50;;;;;;;;;;5015673;28;20245;-87
2024/03/16 04:10:31;;;;;;;23.17;18.73;;;;;;;;;;5021176;28;20548;-86
2024/03/16 04:12:56;;;;;;;20.97;18.07;;;;;;;;;;5009213;28;20244;-85
2024/03/16 04:15:23;;;;;;;23.50;18.03;;;;;;;;;;5002956;28;20224;-85
2024/03/16 04:17:48;;;;;;;22.53;17.70;;;;;;;;;;5006887;28;20231;-84
2024/03/16 04:20:19;;;;;;;24.33;17.50;;;;;;;;;;4996900;28;20219;-85
2024/03/16 04:22:45;;;;;;;24.67;17.43;;;;;;;;;;5012142;28;20221;-86
2024/03/16 04:25:13;;;;;;;19.33;16.90;;;;;;;;;;5008302;28;20223;-86
2024/03/16 04:27:39;;;;;;;22.93;17.47;;;;;;;;;;5035988;28;20212;-85
2024/03/16 04:30:08;;;;;;;21.60;16.33;;;;;;;;;;5005217;28;20246;-82
2024/03/16 04:32:35;;;;;;;22.80;17.27;;;;;;;;;;5031823;28;20220;-85
2024/03/16 04:35:01;;;;;;;21.80;17.03;;;;;;;;;;5010569;28;20284;-85
2024/03/16 04:37:26;;;;;;;20.40;16.10;;;;;;;;;;5020594;28;20322;-86
2024/03/16 04:39:55;;;;;;;23.50;16.37;;;;;;;;;;5012894;28;20228;-85
2024/03/16 04:42:21;;;;;;;21.37;16.63;;;;;;;;;;5018186;28;20596;-86
2024/03/16 04:44:49;;;;;;;21.00;16.20;;;;;;;;;;4995523;28;20228;-86
2024/03/16 04:47:14;;;;;;;21.20;16.57;;;;;;;;;;4994582;28;20733;-86
2024/03/16 04:49:42;;;;;;;23.13;17.07;;;;;;;;;;5011292;28;20497;-79
2024/03/16 04:52:08;;;;;;;20.93;16.83;;;;;;;;;;4981044;28;20222;-78
2024/03/16 04:54:33;;;;;;;22.10;17.23;;;;;;;;;;5006603;28;20598;-79
2024/03/16 04:56:59;;;;;;;24.10;17.17;;;;;;;;;;5012192;28;20225;-79
2024/03/16 04:59:24;;;;;;;24.77;17.40;;;;;;;;;;5018554;28;20644;-79
2024/03/16 05:01:50;;;;;;;24.70;17.70;;;;;;;;;;5021334;28;20290;-77
2024/03/16 05:04:15;;;;;;;22.17;17.80;;;;;;;;;;5016384;28;20250;-78
2024/03/16 05:06:41;;;;;;;24.33;18.50;;;;;;;;;;5005624;28;20244;-77
2024/03/16 05:09:12;;;;;;;25.07;18.50;;;;;;;;;;5019750;28;20224;-78
2024/03/16 05:11:40;;;;;;;26.30;19.13;;;;;;;;;;5036572;28;20220;-80
2024/03/16 05:14:06;;;;;;;24.37;20.37;;;;;;;;;;5006742;28;20232;-79
2024/03/16 05:16:40;;;;;;;26.30;20.07;;;;;;;;;;5004379;28;20235;-79
2024/03/16 05:19:06;;;;;;;25.13;20.37;;;;;;;;;;4993542;28;20225;-78
2024/03/16 05:21:32;;;;;;;24.23;20.13;;;;;;;;;;5004255;28;20224;-78
2024/03/16 05:23:59;;;;;;;24.87;21.40;;;;;;;;;;5003427;28;20233;-79
2024/03/16 05:26:25;;;;;;;26.43;21.73;;;;;;;;;;4996823;28;20220;-79
2024/03/16 05:28:51;;;;;;;27.23;22.00;;;;;;;;;;5022578;28;20243;-77
2024/03/16 05:31:19;;;;;;;26.10;22.87;;;;;;;;;;5014661;28;20224;-78
2024/03/16 05:33:45;;;;;;;26.67;23.20;;;;;;;;;;5018693;28;20230;-77
2024/03/16 05:36:13;;;;;;;27.87;23.40;;;;;;;;;;5018541;28;20993;-78
2024/03/16 05:38:43;;;;;;;28.77;23.93;;;;;;;;;;5004320;28;20252;-78
2024/03/16 05:41:09;;;;;;;27.90;23.97;;;;;;;;;;5017237;28;20229;-77
2024/03/16 05:43:35;;;;;;;34.37;24.47;;;;;;;;;;4987175;28;20273;-80
2024/03/16 05:46:01;;;;;;;28.53;25.17;;;;;;;;;;5011335;28;20228;-78
2024/03/16 05:48:29;;;;;;;28.53;24.80;;;;;;;;;;5025697;28;20217;-78
2024/03/16 05:50:56;;;;;;;29.90;25.63;;;;;;;;;;5006077;28;20232;-78
2024/03/16 05:53:23;;;;;;;32.10;26.03;;;;;;;;;;5030355;28;20332;-78
2024/03/16 05:55:49;;;;;;;31.60;26.00;;;;;;;;;;5023322;28;20312;-79
2024/03/16 05:58:21;;;;;;;28.70;25.80;;;;;;;;;;5020500;28;20223;-77
2024/03/16 06:00:47;;;;;;;31.17;27.90;;;;;;;;;;4999505;28;20269;-80
2024/03/16 06:03:12;;;;;;;28.20;25.17;;;;;;;;;;5024357;28;20273;-78
2024/03/16 06:05:38;;;;;;;29.47;25.87;;;;;;;;;;5005227;28;20230;-79
2024/03/16 06:08:07;;;;;;;29.33;26.17;;;;;;;;;;4991329;28;20230;-81
2024/03/16 06:10:33;;;;;;;32.10;26.87;;;;;;;;;;5008132;28;20228;-78
2024/03/16 06:12:58;;;;;;;32.10;26.17;;;;;;;;;;5015694;28;20601;-79
2024/03/16 06:15:24;;;;;;;30.80;26.30;;;;;;;;;;5029864;28;20216;-78
2024/03/16 06:17:50;;;;;;;32.60;26.57;;;;;;;;;;5011214;28;20298;-77
2024/03/16 06:20:18;;;;;;;31.23;27.80;;;;;;;;;;5007724;28;20247;-79
2024/03/16 06:22:44;;;;;;;29.93;26.90;;;;;;;;;;5020013;28;20247;-79
2024/03/16 06:25:13;;;;;;;32.83;28.20;;;;;;;;;;4996563;28;20252;-80
2024/03/16 06:27:53;;;;;;;31.27;27.27;;;;;;;;;;5037451;28;20243;-80
2024/03/16 06:30:27;;;;;;;31.30;27.20;;;;;;;;;;5027275;28;20231;-81
2024/03/16 06:33:05;;;;;;;29.60;26.47;;;;;;;;;;5014604;28;20260;-78
2024/03/16 06:35:32;;;;;;;31.30;26.07;;;;;;;;;;5021148;28;20212;-80
2024/03/16 06:38:00;;;;;;;23.63;21.23;;;;;;;;;;5012854;28;20572;-82
2024/03/16 06:40:26;;;;;;;16.97;14.03;;;;;;;;;;5009744;28;20706;-80
2024/03/16 06:42:51;;;;;;;15.93;14.40;;;;;;;;;;4990280;28;20237;-80
2024/03/16 06:45:17;;;;;;;13.93;12.13;;;;;;;;;;5022641;28;20228;-82
2024/03/16 06:47:44;;;;;;;10.50;9.03;;;;;;;;;;5023181;28;20225;-80
2024/03/16 06:50:10;;;;;;;8.97;7.90;;;;;;;;;;5007281;28;20250;-81
2024/03/16 06:52:36;;;;;;;9.20;6.80;;;;;;;;;;5007626;28;20232;-80
2024/03/16 06:55:02;;;;;;;9.23;6.63;;;;;;;;;;5008480;28;20220;-83
2024/03/16 06:57:28;;;;;;;7.27;6.57;;;;;;;;;;5004036;28;20576;-82
2024/03/16 06:59:53;;;;;;;7.87;6.30;;;;;;;;;;5024123;28;20343;-81
2024/03/16 07:02:19;;;;;;;7.00;6.17;;;;;;;;;;5030805;28;20680;-80
2024/03/16 07:04:47;;;;;;;6.67;5.90;;;;;;;;;;4996146;28;20237;-81
2024/03/16 07:07:12;;;;;;;6.17;5.57;;;;;;;;;;5009652;28;20339;-81
2024/03/16 07:09:38;;;;;;;5.33;4.83;;;;;;;;;;5023739;28;20212;-80
2024/03/16 07:12:04;;;;;;;6.53;4.60;;;;;;;;;;5013363;28;20228;-81
2024/03/16 07:14:29;;;;;;;4.37;3.53;;;;;;;;;;5008183;28;20242;-83
2024/03/16 07:16:57;;;;;;;4.37;3.73;;;;;;;;;;5028513;28;20231;-82
2024/03/16 07:19:25;;;;;;;3.77;3.40;;;;;;;;;;5023935;28;20350;-79
2024/03/16 07:21:51;;;;;;;4.17;3.60;;;;;;;;;;5032671;28;20874;-79
2024/03/16 07:24:16;;;;;;;4.83;3.80;;;;;;;;;;5018559;28;20240;-82
2024/03/16 07:26:42;;;;;;;3.83;3.20;;;;;;;;;;4998075;28;20323;-83
2024/03/16 07:29:08;;;;;;;3.90;3.13;;;;;;;;;;4993450;28;20233;-79
2024/03/16 07:31:34;;;;;;;3.23;2.70;;;;;;;;;;5005539;28;20256;-81
2024/03/16 07:33:59;;;;;;;2.37;2.17;;;;;;;;;;5008293;28;20964;-79
2024/03/16 07:36:25;;;;;;;2.90;2.40;;;;;;;;;;5007754;28;20572;-80
2024/03/16 07:38:53;;;;;;;2.93;2.40;;;;;;;;;;5016361;28;20333;-81
2024/03/16 07:41:19;;;;;;;3.43;2.20;;;;;;;;;;5008178;28;20231;-80
2024/03/16 07:43:47;;;;;;;2.30;2.10;;;;;;;;;;5030104;28;20228;-80
2024/03/16 07:46:15;;;;;;;3.77;2.10;;;;;;;;;;5006031;28;20720;-79
2024/03/16 07:48:41;;;;;;;4.40;2.20;;;;;;;;;;5002359;28;20231;-80
2024/03/16 07:51:07;;;;;;;3.37;2.17;;;;;;;;;;5019695;28;20954;-80
2024/03/16 07:53:32;;;;;;;3.20;2.07;;;;;;;;;;5022105;28;20603;-81
2024/03/16 07:55:58;;;;;;;2.20;1.93;;;;;;;;;;5022519;28;20605;-80
2024/03/16 07:58:24;;;;;;;2.17;1.70;;;;;;;;;;4992200;28;20223;-80
2024/03/16 08:00:50;;;;;;;2.73;2.00;;;;;;;;;;4989799;28;20232;-81
2024/03/16 08:03:18;;;;;;;4.80;2.17;;;;;;;;;;4995434;28;20232;-80
2024/03/16 08:05:44;;;;;;;5.60;2.10;;;;;;;;;;5011311;28;20221;-81
2024/03/16 08:08:09;;;;;;;3.80;1.93;;;;;;;;;;5013769;28;20232;-81
2024/03/16 08:10:35;;;;;;;3.10;2.20;;;;;;;;;;4987247;28;20254;-79
2024/03/16 08:13:01;;;;;;;2.87;1.90;;;;;;;;;;4993670;28;20228;-78
2024/03/16 08:15:26;;;;;;;4.73;2.10;;;;;;;;;;5019375;28;20224;-81
2024/03/16 08:17:54;;;;;;;2.43;2.00;;;;;;;;;;5007143;28;20230;-80
2024/03/16 08:20:20;;;;;;;4.53;1.63;;;;;;;;;;5004503;28;20223;-82
2024/03/16 08:22:48;;;;;;;2.67;1.73;;;;;;;;;;5021709;28;20230;-80
2024/03/16 08:25:14;;;;;;;4.33;1.77;;;;;;;;;;5015733;28;20228;-80
2024/03/16 08:27:41;;;;;;;5.80;1.60;;;;;;;;;;5012779;28;20231;-80
2024/03/16 08:30:07;;;;;;;5.73;2.10;;;;;;;;;;4992237;28;20263;-81
2024/03/16 08:32:33;;;;;;;5.90;1.90;;;;;;;;;;5044746;28;20714;-79
2024/03/16 08:35:00;;;;;;;7.47;1.97;;;;;;;;;;5015456;28;20226;-81
2024/03/16 08:37:26;;;;;;;4.23;1.37;;;;;;;;;;5022149;28;20224;-79
2024/03/16 08:39:51;;;;;;;6.53;1.90;;;;;;;;;;5007223;28;20866;-81
2024/03/16 08:42:17;;;;;;;5.17;1.77;;;;;;;;;;4988470;28;20220;-81
2024/03/16 08:44:44;;;;;;;6.70;1.60;;;;;;;;;;5013090;28;20896;-81
2024/03/16 08:47:11;;;;;;;6.87;1.97;;;;;;;;;;5020512;28;20228;-81
2024/03/16 08:49:37;;;;;;;7.10;1.90;;;;;;;;;;5020483;28;20228;-80
2024/03/16 08:52:03;;;;;;;7.07;1.90;;;;;;;;;;4997354;28;20228;-82
2024/03/16 08:54:29;;;;;;;8.73;2.17;;;;;;;;;;5026985;28;20277;-80
2024/03/16 08:56:55;;;;;;;9.63;2.00;;;;;;;;;;4991120;28;20220;-80
2024/03/16 08:59:21;;;;;;;6.47;1.80;;;;;;;;;;5020935;28;20212;-81
2024/03/16 09:01:46;;;;;;;11.77;2.23;;;;;;;;;;5005694;28;20228;-79
2024/03/16 09:04:12;;;;;;;9.73;2.00;;;;;;;;;;5021966;28;20240;-78
2024/03/16 09:06:40;;;;;;;6.50;2.10;;;;;;;;;;5020524;28;20277;-80
2024/03/16 09:09:10;;;;;;;7.63;2.17;;;;;;;;;;5009788;28;20228;-78
2024/03/16 09:11:39;;;;;;;6.60;2.30;;;;;;;;;;5003335;28;20714;-80
2024/03/16 09:14:09;;;;;;;6.30;1.67;;;;;;;;;;5013232;28;20327;-82
2024/03/16 09:16:40;;;;;;;6.63;1.77;;;;;;;;;;5033584;28;20204;-79
2024/03/16 09:19:09;;;;;;;7.47;2.27;;;;;;;;;;5022332;28;20224;-78
2024/03/16 09:21:37;;;;;;;6.97;2.00;;;;;;;;;;5011024;28;20220;-79
2024/03/16 09:24:03;;;;;;;11.10;2.03;;;;;;;;;;5013446;28;20213;-77
2024/03/16 09:26:34;;;;;;;8.40;2.00;;;;;;;;;;5006390;28;20212;-79
2024/03/16 09:28:59;;;;;;;5.87;1.60;;;;;;;;;;5033256;28;20229;-81
2024/03/16 09:31:25;;;;;;;6.27;2.00;;;;;;;;;;5030933;28;20227;-82
2024/03/16 09:33:51;;;;;;;8.30;1.97;;;;;;;;;;5009277;28;20234;-78
2024/03/16 09:36:16;;;;;;;5.93;1.87;;;;;;;;;;5004894;28;20756;-79
2024/03/16 09:38:44;;;;;;;6.70;1.60;;;;;;;;;;5006258;28;20217;-79
2024/03/16 09:41:19;;;;;;;6.87;1.50;;;;;;;;;;5012827;28;20286;-80
2024/03/16 09:43:45;;;;;;;4.97;1.70;;;;;;;;;;5037135;28;20224;-79
2024/03/16 09:46:10;;;;;;;9.10;1.80;;;;;;;;;;5021893;28;20231;-80
2024/03/16 09:48:37;;;;;;;6.07;2.00;;;;;;;;;;5021124;28;20219;-78
2024/03/16 09:51:04;;;;;;;7.43;1.60;;;;;;;;;;5003714;28;20241;-80
2024/03/16 09:53:31;;;;;;;7.27;1.50;;;;;;;;;;5008308;28;20231;-79
2024/03/16 09:56:04;;;;;;;4.23;1.40;;;;;;;;;;5009697;28;20709;-79
2024/03/16 09:58:30;;;;;;;5.37;1.50;;;;;;;;;;5018781;28;20284;-77
2024/03/16 10:00:56;;;;;;;8.53;1.80;;;;;;;;;;4972514;28;20256;-78
2024/03/16 10:03:22;;;;;;;7.30;1.40;;;;;;;;;;5004230;28;20699;-80
2024/03/16 10:05:48;;;;;;;6.50;2.00;;;;;;;;;;5019761;28;20247;-81
2024/03/16 10:08:20;;;;;;;5.70;1.47;;;;;;;;;;4997790;28;20247;-79
2024/03/16 10:10:49;;;;;;;6.43;1.57;;;;;;;;;;5019129;28;20444;-77
2024/03/16 10:13:15;;;;;;;7.97;1.63;;;;;;;;;;5011982;28;20227;-78
2024/03/16 10:15:44;;;;;;;6.50;1.40;;;;;;;;;;5013618;28;20216;-78
2024/03/16 10:18:14;;;;;;;5.97;1.53;;;;;;;;;;5007839;28;20724;-80
2024/03/16 10:20:42;;;;;;;10.33;1.67;;;;;;;;;;5009508;28;20231;-80
2024/03/16 10:23:10;;;;;;;8.37;1.70;;;;;;;;;;5008599;28;20234;-80
2024/03/16 10:25:37;;;;;;;5.53;1.40;;;;;;;;;;5005653;28;20773;-78
2024/03/16 10:28:08;;;;;;;7.60;1.80;;;;;;;;;;5035691;28;20225;-79
2024/03/16 10:30:34;;;;;;;5.70;1.73;;;;;;;;;;5015017;28;20291;-79
2024/03/16 10:33:02;;;;;;;5.60;1.80;;;;;;;;;;5037259;28;20253;-79
2024/03/16 10:35:33;;;;;;;7.07;1.80;;;;;;;;;;5023807;28;20235;-78
2024/03/16 10:37:59;;;;;;;5.47;1.60;;;;;;;;;;5011132;28;20311;-79
2024/03/16 10:40:24;;;;;;;5.90;1.50;;;;;;;;;;5012718;28;20228;-79
2024/03/16 10:42:50;;;;;;;7.47;1.70;;;;;;;;;;5028505;28;20228;-77
2024/03/16 10:45:16;;;;;;;8.17;1.53;;;;;;;;;;5004721;28;20295;-79
2024/03/16 10:47:54;;;;;;;8.60;1.90;;;;;;;;;;5004395;28;20224;-79
2024/03/16 10:50:21;;;;;;;5.70;1.53;;;;;;;;;;5007100;28;20220;-78
2024/03/16 10:52:52;;;;;;;6.03;1.67;;;;;;;;;;5005994;28;20300;-78
2024/03/16 10:55:24;;;;;;;8.37;1.80;;;;;;;;;;5004491;28;20228;-78
2024/03/16 10:57:53;;;;;;;5.50;1.63;;;;;;;;;;4997610;28;20220;-78
2024/03/16 11:00:29;;;;;;;8.27;1.97;;;;;;;;;;4988096;28;20947;-78
2024/03/16 11:03:07;;;;;;;6.43;1.40;;;;;;;;;;5026129;28;20231;-79
2024/03/16 11:05:37;;;;;;;5.23;1.17;;;;;;;;;;5028800;28;20228;-79
2024/03/16 11:08:14;;;;;;;4.97;1.50;;;;;;;;;;5031482;28;20211;-80
2024/03/16 11:10:43;;;;;;;5.77;1.60;;;;;;;;;;5034133;28;20320;-79
2024/03/16 11:13:11;;;;;;;5.63;1.10;;;;;;;;;;5018836;28;20342;-78
2024/03/16 11:15:40;;;;;;;6.43;1.23;;;;;;;;;;4976333;28;20216;-79
2024/03/16 11:18:21;;;;;;;5.23;1.33;;;;;;;;;;5026536;28;20228;-80
2024/03/16 11:20:48;;;;;;;6.40;1.37;;;;;;;;;;5038783;28;20432;-77
2024/03/16 11:23:23;;;;;;;5.13;1.30;;;;;;;;;;5017190;28;20533;-82
2024/03/16 11:25:52;;;;;;;4.80;1.13;;;;;;;;;;5018029;28;20232;-80
2024/03/16 11:28:17;;;;;;;4.43;1.03;;;;;;;;;;5002675;28;20319;-79
2024/03/16 11:30:50;;;;;;;2.80;1.03;;;;;;;;;;5019907;28;20223;-80
2024/03/16 11:33:16;;;;;;;2.30;1.10;;;;;;;;;;5001840;28;20238;-81
2024/03/16 11:35:42;;;;;;;2.97;0.87;;;;;;;;;;4996081;28;20559;-80
2024/03/16 11:38:18;;;;;;;5.00;1.43;;;;;;;;;;4989164;28;20226;-80
2024/03/16 11:40:46;;;;;;;3.40;1.10;;;;;;;;;;5016861;28;20275;-77
2024/03/16 11:43:15;;;;;;;3.77;0.80;;;;;;;;;;5020188;28;20235;-79
2024/03/16 11:45:49;;;;;;;4.87;1.00;;;;;;;;;;5003934;28;20266;-80
2024/03/16 11:48:16;;;;;;;3.10;1.00;;;;;;;;;;5032825;28;20270;-81
2024/03/16 11:50:43;;;;;;;4.20;1.20;;;;;;;;;;5017984;28;20220;-80
2024/03/16 11:53:12;;;;;;;5.23;1.10;;;;;;;;;;5004363;28;20228;-78
2024/03/16 11:55:40;;;;;;;3.70;1.10;;;;;;;;;;5005659;28;20603;-81
2024/03/16 11:58:09;;;;;;;2.57;1.20;;;;;;;;;;5000681;28;20319;-78
2024/03/16 12:00:39;;;;;;;3.83;1.40;;;;;;;;;;4996193;28;20227;-78
2024/03/16 12:03:10;;;;;;;3.10;1.00;;;;;;;;;;5006835;28;20228;-80
2024/03/16 12:05:36;;;;;;;3.00;0.87;;;;;;;;;;5014658;28;20236;-79
2024/03/16 12:08:05;;;;;;;3.37;1.07;;;;;;;;;;5011860;28;20216;-78
2024/03/16 12:10:37;;;;;;;2.83;1.00;;;;;;;;;;5002672;28;20235;-80
2024/03/16 12:13:06;;;;;;;4.37;1.20;;;;;;;;;;5013869;28;20231;-78
2024/03/16 12:15:31;;;;;;;4.37;1.30;;;;;;;;;;5006034;28;20220;-79
2024/03/16 12:17:57;;;;;;;7.07;1.20;;;;;;;;;;5007346;28;20730;-77
2024/03/16 12:20:27;;;;;;;5.47;1.40;;;;;;;;;;4986221;28;20909;-77
2024/03/16 12:22:56;;;;;;;5.57;1.50;;;;;;;;;;5013528;28;20320;-78
2024/03/16 12:25:25;;;;;;;4.87;1.33;;;;;;;;;;5015879;28;20233;-78
2024/03/16 12:27:52;;;;;;;4.77;1.23;;;;;;;;;;5008081;28;20232;-79
2024/03/16 12:30:17;;;;;;;5.23;1.27;;;;;;;;;;5004857;28;20227;-79
2024/03/16 12:32:43;;;;;;;5.30;1.60;;;;;;;;;;5027280;28;20598;-78
2024/03/16 12:35:14;;;;;;;6.47;1.90;;;;;;;;;;5040208;28;20220;-79
2024/03/16 12:37:40;;;;;;;4.93;1.37;;;;;;;;;;5040330;28;20220;-78
2024/03/16 12:40:06;;;;;;;4.73;1.57;;;;;;;;;;5009384;28;20226;-78
2024/03/16 12:42:32;;;;;;;6.37;1.40;;;;;;;;;;5011653;28;20255;-79
2024/03/16 12:45:05;;;;;;;5.73;1.57;;;;;;;;;;5022636;28;20324;-78
2024/03/16 12:47:31;;;;;;;5.23;1.40;;;;;;;;;;5011112;28;20263;-79
2024/03/16 12:49:56;;;;;;;4.90;1.30;;;;;;;;;;5021014;28;20220;-78
2024/03/16 12:52:23;;;;;;;4.70;1.40;;;;;;;;;;5021364;28;20303;-78
2024/03/16 12:54:52;;;;;;;5.10;1.33;;;;;;;;;;5005288;28;20223;-81
2024/03/16 12:57:20;;;;;;;4.60;1.10;;;;;;;;;;4990606;28;20406;-80
2024/03/16 12:59:46;;;;;;;5.90;1.60;;;;;;;;;;5004713;28;21016;-79
2024/03/16 13:02:13;;;;;;;5.13;1.50;;;;;;;;;;4993929;28;20220;-79
2024/03/16 13:04:39;;;;;;;6.80;1.60;;;;;;;;;;5013706;28;20307;-77
2024/03/16 13:07:04;;;;;;;3.97;1.20;;;;;;;;;;5006010;28;20215;-79
2024/03/16 13:09:30;;;;;;;5.87;2.00;;;;;;;;;;5001422;28;20228;-80
2024/03/16 13:11:56;;;;;;;4.80;1.33;;;;;;;;;;5010650;28;20232;-79
2024/03/16 13:14:22;;;;;;;6.20;1.37;;;;;;;;;;5002870;28;21516;-78
2024/03/16 13:16:50;;;;;;;5.67;1.40;;;;;;;;;;5005089;28;20228;-79
2024/03/16 13:19:16;;;;;;;6.00;1.63;;;;;;;;;;4987048;28;20239;-79
2024/03/16 13:21:44;;;;;;;5.37;1.50;;;;;;;;;;5016233;28;20216;-80
2024/03/16 13:24:12;;;;;;;4.00;1.37;;;;;;;;;;4972543;28;20228;-79
2024/03/16 13:26:39;;;;;;;6.73;1.20;;;;;;;;;;5016080;28;20278;-80
2024/03/16 13:29:08;;;;;;;6.43;1.77;;;;;;;;;;5025261;28;20227;-80
2024/03/16 13:31:36;;;;;;;4.53;1.40;;;;;;;;;;5012387;28;20839;-80
2024/03/16 13:34:01;;;;;;;5.63;1.50;;;;;;;;;;5022267;28;20254;-79
2024/03/16 13:36:29;;;;;;;8.57;1.70;;;;;;;;;;5021019;28;20746;-79
2024/03/16 13:38:56;;;;;;;5.00;1.37;;;;;;;;;;5022191;28;20220;-80
2024/03/16 13:41:25;;;;;;;5.60;1.33;;;;;;;;;;5012370;28;20270;-81
2024/03/16 13:43:54;;;;;;;8.57;1.80;;;;;;;;;;5021789;28;20224;-80
2024/03/16 13:46:20;;;;;;;7.40;1.50;;;;;;;;;;5014846;28;20324;-82
2024/03/16 13:49:04;;;;;;;6.63;1.70;;;;;;;;;;5019368;28;20228;-78
2024/03/16 13:51:32;;;;;;;4.73;1.10;;;;;;;;;;5004050;28;20238;-80
2024/03/16 13:53:59;;;;;;;6.83;1.63;;;;;;;;;;5027589;28;20220;-76
2024/03/16 13:56:27;;;;;;;5.87;1.53;;;;;;;;;;5052315;28;21056;-80
2024/03/16 13:58:53;;;;;;;5.83;1.40;;;;;;;;;;4996548;28;20232;-78
2024/03/16 14:01:24;;;;;;;4.93;1.10;;;;;;;;;;4996966;28;20228;-83
2024/03/16 14:04:10;;;;;;;5.23;1.40;;;;;;;;;;5016566;28;20299;-80
2024/03/16 14:06:36;;;;;;;6.23;1.07;;;;;;;;;;5035185;28;20300;-77
2024/03/16 14:09:06;;;;;;;6.13;2.03;;;;;;;;;;5023071;28;20579;-78
2024/03/16 14:11:36;;;;;;;6.93;1.90;;;;;;;;;;5008474;28;20233;-79
2024/03/16 14:14:02;;;;;;;6.43;1.83;;;;;;;;;;4985956;28;20316;-80
2024/03/16 14:16:27;;;;;;;4.07;1.33;;;;;;;;;;5005403;28;20220;-79
2024/03/16 14:18:53;;;;;;;5.83;1.57;;;;;;;;;;5019389;28;20606;-80
2024/03/16 14:21:18;;;;;;;5.80;1.50;;;;;;;;;;5022741;28;20932;-81
2024/03/16 14:23:44;;;;;;;9.87;1.70;;;;;;;;;;5021268;28;20213;-79
2024/03/16 14:26:10;;;;;;;7.47;1.70;;;;;;;;;;4992237;28;20216;-79
2024/03/16 14:28:35;;;;;;;6.17;1.50;;;;;;;;;;4998736;28;20228;-78
2024/03/16 14:31:04;;;;;;;9.23;2.17;;;;;;;;;;5003777;28;20251;-79
2024/03/16 14:33:30;;;;;;;7.03;1.60;;;;;;;;;;5015566;28;20227;-81
2024/03/16 14:35:55;;;;;;;4.77;1.57;;;;;;;;;;5012625;28;20239;-80